PWSweather.com
Personal Weather Stations
Station Observations
SUBOTICARS
SuboticaYU

SuboticaYU

Lat: 46.1296717, Lon: 19.641551

Elevation: 361

Station Type: Nexus

http://sumeteo.info

Latest ConditionsUpdated 7:00:00 PM GMT+01:01 Friday, May 27, 2016
Currently Today's Max Today's Min Today's Average
Temperature 74.8°F23.8°C 84.2°F29.0°C 53.8°F12.1°C 71.6°F22.0°C
Dew Point 64.4°F18.0°C 65.8°F18.8°C 52.4°F11.3°C 59.9°F15.5°C
Winds Calm Calm 4.6 mph WSW7.4 kmh WSW - 1.6 mph 2.6 kmh
Wind Gusts -- 8.1 mph13.0 kmh - -
Humidity 70% 96% 45% 70%
Pressure 30.03 in1016.9 mb 30.14 in1020.7 mb 30.03 in1016.9 mb -
Hour Temp Dew Point Humidity Winds Wind Gusts Pressure Precip Precip Rate Daily Precip Total
07:00 PM 74.8°F23.8°C 64.4°F18.0°C 70% Calm Calm -- 30.03 in1016.9 mb - 0.00 in0.0 mm 0.00 in0.0 mm
06:50 PM 75.4°F24.1°C 64.5°F18.1°C 69% Calm Calm -- 30.05 in1017.6 mb - 0.00 in0.0 mm 0.00 in0.0 mm
06:40 PM 75.9°F24.4°C 64.2°F17.9°C 67% Calm Calm -- 30.05 in1017.6 mb - 0.00 in0.0 mm 0.00 in0.0 mm
06:30 PM 77.4°F25.2°C 64.2°F17.9°C 64% Calm Calm -- 30.05 in1017.6 mb - 0.00 in0.0 mm 0.00 in0.0 mm
06:20 PM 77.7°F25.4°C 62.2°F16.8°C 59% Calm Calm -- 30.05 in1017.6 mb - 0.00 in0.0 mm 0.00 in0.0 mm
06:10 PM 78.6°F25.9°C 62.1°F16.7°C 57% Calm Calm -- 30.06 in1017.9 mb - 0.00 in0.0 mm 0.00 in0.0 mm
06:00 PM 79.2°F26.2°C 61.1°F16.2°C 54% Calm Calm -- 30.06 in1017.9 mb - 0.00 in0.0 mm 0.00 in0.0 mm
05:50 PM 79.9°F26.6°C 61.2°F16.2°C 53% Calm Calm 1.2 mph1.9 kmh 30.06 in1017.9 mb - 0.00 in0.0 mm 0.00 in0.0 mm
05:40 PM 80.6°F27.0°C 61.9°F16.6°C 53% Calm Calm 1.2 mph1.9 kmh 30.06 in1017.9 mb - 0.00 in0.0 mm 0.00 in0.0 mm
05:30 PM 81.1°F27.3°C 61.3°F16.3°C 51% 1.2 mph NW1.9 kmh NW -- 30.05 in1017.6 mb - 0.00 in0.0 mm 0.00 in0.0 mm
05:20 PM 81.9°F27.7°C 60.8°F16.0°C 49% 1.2 mph SW1.9 kmh SW 1.2 mph1.9 kmh 30.05 in1017.6 mb - 0.00 in0.0 mm 0.00 in0.0 mm
05:10 PM 82.8°F28.2°C 61.1°F16.2°C 48% 2.3 mph SW3.7 kmh SW 3.5 mph5.6 kmh 30.05 in1017.6 mb - 0.00 in0.0 mm 0.00 in0.0 mm
05:00 PM 83.8°F28.8°C 61.5°F16.4°C 47% 1.2 mph SW1.9 kmh SW 3.5 mph5.6 kmh 30.05 in1017.6 mb - 0.00 in0.0 mm 0.00 in0.0 mm
04:50 PM 83.5°F28.6°C 61.1°F16.2°C 47% 3.5 mph W5.6 kmh W 1.2 mph1.9 kmh 30.05 in1017.6 mb - 0.00 in0.0 mm 0.00 in0.0 mm
04:40 PM 83.8°F28.8°C 61.5°F16.4°C 47% 1.2 mph SSW1.9 kmh SSW 4.6 mph7.4 kmh 30.05 in1017.6 mb - 0.00 in0.0 mm 0.00 in0.0 mm
04:30 PM 83.3°F28.5°C 61.0°F16.1°C 47% 2.3 mph NW3.7 kmh NW 3.5 mph5.6 kmh 30.05 in1017.6 mb - 0.00 in0.0 mm 0.00 in0.0 mm
04:20 PM 83.7°F28.7°C 61.3°F16.3°C 47% 2.3 mph WSW3.7 kmh WSW 2.3 mph3.7 kmh 30.05 in1017.6 mb - 0.00 in0.0 mm 0.00 in0.0 mm
04:10 PM 83.8°F28.8°C 62.1°F16.7°C 48% 1.2 mph W1.9 kmh W 3.5 mph5.6 kmh 30.06 in1017.9 mb - 0.00 in0.0 mm 0.00 in0.0 mm
04:00 PM 83.3°F28.5°C 61.0°F16.1°C 47% 3.5 mph W5.6 kmh W 4.6 mph7.4 kmh 30.06 in1017.9 mb - 0.00 in0.0 mm 0.00 in0.0 mm
03:50 PM 83.1°F28.4°C 61.4°F16.3°C 48% 2.3 mph SSW3.7 kmh SSW 2.3 mph3.7 kmh 30.06 in1017.9 mb - 0.00 in0.0 mm 0.00 in0.0 mm
03:40 PM 84.2°F29.0°C 62.4°F16.9°C 48% 2.3 mph NNW3.7 kmh NNW 2.3 mph3.7 kmh 30.06 in1017.9 mb - 0.00 in0.0 mm 0.00 in0.0 mm
03:30 PM 84.0°F28.9°C 61.6°F16.4°C 47% 1.2 mph SW1.9 kmh SW 3.5 mph5.6 kmh 30.06 in1017.9 mb - 0.00 in0.0 mm 0.00 in0.0 mm
03:20 PM 84.2°F29.0°C 62.4°F16.9°C 48% 2.3 mph WSW3.7 kmh WSW 3.5 mph5.6 kmh 30.06 in1017.9 mb - 0.00 in0.0 mm 0.00 in0.0 mm
03:10 PM 83.8°F28.8°C 62.1°F16.7°C 48% 3.5 mph SSW5.6 kmh SSW 4.6 mph7.4 kmh 30.06 in1017.9 mb - 0.00 in0.0 mm 0.00 in0.0 mm
03:00 PM 83.3°F28.5°C 61.0°F16.1°C 47% 2.3 mph SW3.7 kmh SW 4.6 mph7.4 kmh 30.06 in1017.9 mb - 0.00 in0.0 mm 0.00 in0.0 mm
02:50 PM 83.3°F28.5°C 62.7°F17.1°C 50% 2.3 mph SE3.7 kmh SE 3.5 mph5.6 kmh 30.07 in1018.3 mb - 0.00 in0.0 mm 0.00 in0.0 mm
02:40 PM 83.8°F28.8°C 61.5°F16.4°C 47% 2.3 mph ESE3.7 kmh ESE 2.3 mph3.7 kmh 30.07 in1018.3 mb - 0.00 in0.0 mm 0.00 in0.0 mm
02:30 PM 83.8°F28.8°C 62.1°F16.7°C 48% 2.3 mph WSW3.7 kmh WSW 1.2 mph1.9 kmh 30.07 in1018.3 mb - 0.00 in0.0 mm 0.00 in0.0 mm
02:20 PM 83.3°F28.5°C 61.0°F16.1°C 47% 2.3 mph N3.7 kmh N 3.5 mph5.6 kmh 30.07 in1018.3 mb - 0.00 in0.0 mm 0.00 in0.0 mm
02:10 PM 83.5°F28.6°C 61.7°F16.5°C 48% 2.3 mph W3.7 kmh W 4.6 mph7.4 kmh 30.07 in1018.3 mb - 0.00 in0.0 mm 0.00 in0.0 mm
02:00 PM 82.9°F28.3°C 60.6°F15.9°C 47% 3.5 mph SW5.6 kmh SW 3.5 mph5.6 kmh 30.07 in1018.3 mb - 0.00 in0.0 mm 0.00 in0.0 mm
01:50 PM 82.9°F28.3°C 61.2°F16.2°C 48% 3.5 mph SSW5.6 kmh SSW 6.9 mph11.1 kmh 30.07 in1018.3 mb - 0.00 in0.0 mm 0.00 in0.0 mm
01:40 PM 83.1°F28.4°C 60.2°F15.7°C 46% 2.3 mph WSW3.7 kmh WSW 4.6 mph7.4 kmh 30.07 in1018.3 mb - 0.00 in0.0 mm 0.00 in0.0 mm
01:30 PM 83.1°F28.4°C 62.0°F16.7°C 49% 1.2 mph W1.9 kmh W -- 30.08 in1018.6 mb - 0.00 in0.0 mm 0.00 in0.0 mm
01:20 PM 83.3°F28.5°C 61.6°F16.4°C 48% 3.5 mph W5.6 kmh W 2.3 mph3.7 kmh 30.08 in1018.6 mb - 0.00 in0.0 mm 0.00 in0.0 mm
01:10 PM 83.3°F28.5°C 61.6°F16.4°C 48% 3.5 mph S5.6 kmh S 8.1 mph13.0 kmh 30.09 in1019.0 mb - 0.00 in0.0 mm 0.00 in0.0 mm
01:00 PM 83.1°F28.4°C 62.0°F16.7°C 49% 3.5 mph WSW5.6 kmh WSW 5.8 mph9.3 kmh 30.09 in1019.0 mb - 0.00 in0.0 mm 0.00 in0.0 mm
12:50 PM 83.1°F28.4°C 62.0°F16.7°C 49% 4.6 mph WSW7.4 kmh WSW 4.6 mph7.4 kmh 30.09 in1019.0 mb - 0.00 in0.0 mm 0.00 in0.0 mm
12:40 PM 82.9°F28.3°C 61.8°F16.6°C 49% 3.5 mph ESE5.6 kmh ESE 4.6 mph7.4 kmh 30.09 in1019.0 mb - 0.00 in0.0 mm 0.00 in0.0 mm
12:30 PM 82.9°F28.3°C 63.5°F17.5°C 52% 4.6 mph NE7.4 kmh NE 8.1 mph13.0 kmh 30.10 in1019.3 mb - 0.00 in0.0 mm 0.00 in0.0 mm
12:20 PM 82.8°F28.2°C 62.2°F16.8°C 50% 3.5 mph SSW5.6 kmh SSW 6.9 mph11.1 kmh 30.10 in1019.3 mb - 0.00 in0.0 mm 0.00 in0.0 mm
12:10 PM 82.4°F28.0°C 62.4°F16.9°C 51% 3.5 mph W5.6 kmh W 6.9 mph11.1 kmh 30.11 in1019.6 mb - 0.00 in0.0 mm 0.00 in0.0 mm
12:00 PM 82.4°F28.0°C 60.7°F15.9°C 48% 3.5 mph SSE5.6 kmh SSE 3.5 mph5.6 kmh 30.11 in1019.6 mb - 0.00 in0.0 mm 0.00 in0.0 mm
11:50 AM 82.0°F27.8°C 61.0°F16.1°C 49% 3.5 mph S5.6 kmh S 5.8 mph9.3 kmh 30.13 in1020.3 mb - 0.00 in0.0 mm 0.00 in0.0 mm
11:40 AM 82.0°F27.8°C 60.4°F15.8°C 48% 2.3 mph NW3.7 kmh NW 5.8 mph9.3 kmh 30.13 in1020.3 mb - 0.00 in0.0 mm 0.00 in0.0 mm
11:30 AM 81.5°F27.5°C 61.1°F16.2°C 50% 2.3 mph WSW3.7 kmh WSW 2.3 mph3.7 kmh 30.13 in1020.3 mb - 0.00 in0.0 mm 0.00 in0.0 mm
11:20 AM 81.3°F27.4°C 57.9°F14.4°C 45% 3.5 mph WSW5.6 kmh WSW 8.1 mph13.0 kmh 30.13 in1020.3 mb - 0.00 in0.0 mm 0.00 in0.0 mm
11:10 AM 80.8°F27.1°C 61.0°F16.1°C 51% 4.6 mph WSW7.4 kmh WSW 5.8 mph9.3 kmh 30.14 in1020.7 mb - 0.00 in0.0 mm 0.00 in0.0 mm
11:00 AM 80.4°F26.9°C 61.2°F16.2°C 52% 3.5 mph NNW5.6 kmh NNW 4.6 mph7.4 kmh 30.14 in1020.7 mb - 0.00 in0.0 mm 0.00 in0.0 mm
10:50 AM 80.4°F26.9°C 62.2°F16.8°C 54% 3.5 mph W5.6 kmh W 4.6 mph7.4 kmh 30.13 in1020.3 mb - 0.00 in0.0 mm 0.00 in0.0 mm
10:40 AM 80.1°F26.7°C 61.9°F16.6°C 54% 2.3 mph S3.7 kmh S 1.2 mph1.9 kmh 30.13 in1020.3 mb - 0.00 in0.0 mm 0.00 in0.0 mm
10:30 AM 79.9°F26.6°C 62.3°F16.8°C 55% 3.5 mph NW5.6 kmh NW 3.5 mph5.6 kmh 30.14 in1020.7 mb - 0.00 in0.0 mm 0.00 in0.0 mm
10:20 AM 79.3°F26.3°C 62.3°F16.8°C 56% 3.5 mph SW5.6 kmh SW 5.8 mph9.3 kmh 30.14 in1020.7 mb - 0.00 in0.0 mm 0.00 in0.0 mm
10:10 AM 79.0°F26.1°C 63.4°F17.4°C 59% 3.5 mph 5.6 kmh 1.2 mph1.9 kmh 30.13 in1020.3 mb - 0.00 in0.0 mm 0.00 in0.0 mm
10:00 AM 78.8°F26.0°C 63.7°F17.6°C 60% 3.5 mph S5.6 kmh S 5.8 mph9.3 kmh 30.13 in1020.3 mb - 0.00 in0.0 mm 0.00 in0.0 mm
09:50 AM 78.6°F25.9°C 65.0°F18.3°C 63% 3.5 mph SW5.6 kmh SW 5.8 mph9.3 kmh 30.12 in1020.0 mb - 0.00 in0.0 mm 0.00 in0.0 mm
09:40 AM 78.4°F25.8°C 64.3°F17.9°C 62% 2.3 mph WSW3.7 kmh WSW 3.5 mph5.6 kmh 30.12 in1020.0 mb - 0.00 in0.0 mm 0.00 in0.0 mm
09:30 AM 77.9°F25.5°C 63.4°F17.4°C 61% 2.3 mph WNW3.7 kmh WNW 1.2 mph1.9 kmh 30.13 in1020.3 mb - 0.00 in0.0 mm 0.00 in0.0 mm
09:20 AM 78.1°F25.6°C 65.8°F18.8°C 66% 2.3 mph S3.7 kmh S 3.5 mph5.6 kmh 30.13 in1020.3 mb - 0.00 in0.0 mm 0.00 in0.0 mm
09:10 AM 77.5°F25.3°C 64.8°F18.2°C 65% 3.5 mph WSW5.6 kmh WSW 4.6 mph7.4 kmh 30.12 in1020.0 mb - 0.00 in0.0 mm 0.00 in0.0 mm
09:00 AM 77.4°F25.2°C 64.7°F18.2°C 65% 3.5 mph SW5.6 kmh SW 5.8 mph9.3 kmh 30.12 in1020.0 mb - 0.00 in0.0 mm 0.00 in0.0 mm
08:50 AM 77.0°F25.0°C 65.6°F18.7°C 68% 3.5 mph WSW5.6 kmh WSW 5.8 mph9.3 kmh 30.12 in1020.0 mb - 0.00 in0.0 mm 0.00 in0.0 mm
08:40 AM 76.5°F24.7°C 65.5°F18.6°C 69% 2.3 mph W3.7 kmh W 4.6 mph7.4 kmh 30.12 in1020.0 mb - 0.00 in0.0 mm 0.00 in0.0 mm
08:30 AM 75.7°F24.3°C 65.7°F18.7°C 71% 1.2 mph NW1.9 kmh NW 3.5 mph5.6 kmh 30.11 in1019.6 mb - 0.00 in0.0 mm 0.00 in0.0 mm
08:20 AM 75.0°F23.9°C 65.4°F18.6°C 72% 2.3 mph NW3.7 kmh NW 2.3 mph3.7 kmh 30.11 in1019.6 mb - 0.00 in0.0 mm 0.00 in0.0 mm
08:10 AM 74.1°F23.4°C 65.7°F18.7°C 75% 1.2 mph SW1.9 kmh SW 1.2 mph1.9 kmh 30.11 in1019.6 mb - 0.00 in0.0 mm 0.00 in0.0 mm
08:00 AM 73.2°F22.9°C 64.4°F18.0°C 74% 2.3 mph NNW3.7 kmh NNW 2.3 mph3.7 kmh 30.11 in1019.6 mb - 0.00 in0.0 mm 0.00 in0.0 mm
07:50 AM 72.9°F22.7°C 65.2°F18.4°C 77% 2.3 mph NNW3.7 kmh NNW 3.5 mph5.6 kmh 30.10 in1019.3 mb - 0.00 in0.0 mm 0.00 in0.0 mm
07:40 AM 72.3°F22.4°C 65.4°F18.6°C 79% 1.2 mph NW1.9 kmh NW 2.3 mph3.7 kmh 30.10 in1019.3 mb - 0.00 in0.0 mm 0.00 in0.0 mm
07:30 AM 71.4°F21.9°C 64.6°F18.1°C 79% 2.3 mph N3.7 kmh N 1.2 mph1.9 kmh 30.10 in1019.3 mb - 0.00 in0.0 mm 0.00 in0.0 mm
07:20 AM 71.2°F21.8°C 64.8°F18.2°C 80% 1.2 mph S1.9 kmh S 1.2 mph1.9 kmh 30.10 in1019.3 mb - 0.00 in0.0 mm 0.00 in0.0 mm
07:10 AM 69.8°F21.0°C 64.4°F18.0°C 83% 2.3 mph NE3.7 kmh NE 3.5 mph5.6 kmh 30.10 in1019.3 mb - 0.00 in0.0 mm 0.00 in0.0 mm
07:00 AM 68.9°F20.5°C 63.5°F17.5°C 83% 1.2 mph NNW1.9 kmh NNW 2.3 mph3.7 kmh 30.10 in1019.3 mb - 0.00 in0.0 mm 0.00 in0.0 mm
06:50 AM 68.4°F20.2°C 63.7°F17.6°C 85% 1.2 mph NNE1.9 kmh NNE 4.6 mph7.4 kmh 30.09 in1019.0 mb - 0.00 in0.0 mm 0.00 in0.0 mm
06:40 AM 67.3°F19.6°C 63.3°F17.4°C 87% 2.3 mph NNW3.7 kmh NNW 3.5 mph5.6 kmh 30.09 in1019.0 mb - 0.00 in0.0 mm 0.00 in0.0 mm
06:30 AM 65.8°F18.8°C 62.2°F16.8°C 88% 2.3 mph NNE3.7 kmh NNE 3.5 mph5.6 kmh 30.08 in1018.6 mb - 0.00 in0.0 mm 0.00 in0.0 mm
06:20 AM 64.8°F18.2°C 62.1°F16.7°C 91% 2.3 mph NW3.7 kmh NW 3.5 mph5.6 kmh 30.08 in1018.6 mb - 0.00 in0.0 mm 0.00 in0.0 mm
06:10 AM 63.3°F17.4°C 61.6°F16.4°C 94% 1.2 mph 1.9 kmh 2.3 mph3.7 kmh 30.07 in1018.3 mb - 0.00 in0.0 mm 0.00 in0.0 mm
06:00 AM 62.1°F16.7°C 60.6°F15.9°C 95% Calm Calm 2.3 mph3.7 kmh 30.07 in1018.3 mb - 0.00 in0.0 mm 0.00 in0.0 mm
05:50 AM 60.8°F16.0°C 59.1°F15.1°C 94% Calm Calm -- 30.07 in1018.3 mb - 0.00 in0.0 mm 0.00 in0.0 mm
05:40 AM 59.4°F15.2°C 57.6°F14.2°C 94% Calm Calm -- 30.07 in1018.3 mb - 0.00 in0.0 mm 0.00 in0.0 mm
05:30 AM 58.1°F14.5°C 56.4°F13.6°C 94% Calm Calm -- 30.07 in1018.3 mb - 0.00 in0.0 mm 0.00 in0.0 mm
05:20 AM 57.0°F13.9°C 55.3°F12.9°C 94% Calm Calm -- 30.07 in1018.3 mb - 0.00 in0.0 mm 0.00 in0.0 mm
05:10 AM 56.1°F13.4°C 54.4°F12.4°C 94% Calm Calm -- 30.06 in1017.9 mb - 0.00 in0.0 mm 0.00 in0.0 mm
05:00 AM 55.0°F12.8°C 53.6°F12.0°C 95% Calm Calm -- 30.06 in1017.9 mb - 0.00 in0.0 mm 0.00 in0.0 mm
04:50 AM 54.9°F12.7°C 53.5°F11.9°C 95% Calm Calm -- 30.07 in1018.3 mb - 0.00 in0.0 mm 0.00 in0.0 mm
04:40 AM 54.3°F12.4°C 52.9°F11.6°C 95% Calm Calm -- 30.07 in1018.3 mb - 0.00 in0.0 mm 0.00 in0.0 mm
04:30 AM 53.8°F12.1°C 52.4°F11.3°C 95% Calm Calm -- 30.06 in1017.9 mb - 0.00 in0.0 mm 0.00 in0.0 mm
04:20 AM 53.8°F12.1°C 52.4°F11.3°C 95% Calm Calm -- 30.06 in1017.9 mb - 0.00 in0.0 mm 0.00 in0.0 mm
04:10 AM 54.0°F12.2°C 52.6°F11.4°C 95% Calm Calm -- 30.06 in1017.9 mb - 0.00 in0.0 mm 0.00 in0.0 mm
04:00 AM 54.3°F12.4°C 52.9°F11.6°C 95% Calm Calm -- 30.06 in1017.9 mb - 0.00 in0.0 mm 0.00 in0.0 mm
03:50 AM 54.3°F12.4°C 52.9°F11.6°C 95% Calm Calm -- 30.06 in1017.9 mb - 0.00 in0.0 mm 0.00 in0.0 mm
03:40 AM 54.3°F12.4°C 52.9°F11.6°C 95% Calm Calm -- 30.06 in1017.9 mb - 0.00 in0.0 mm 0.00 in0.0 mm
03:30 AM 54.3°F12.4°C 52.9°F11.6°C 95% Calm Calm -- 30.06 in1017.9 mb - 0.00 in0.0 mm 0.00 in0.0 mm
03:20 AM 54.3°F12.4°C 52.9°F11.6°C 95% Calm Calm -- 30.06 in1017.9 mb - 0.00 in0.0 mm 0.00 in0.0 mm
03:10 AM 54.5°F12.5°C 53.4°F11.9°C 96% Calm Calm -- 30.05 in1017.6 mb - 0.00 in0.0 mm 0.00 in0.0 mm
03:00 AM 54.7°F12.6°C 53.6°F12.0°C 96% Calm Calm -- 30.05 in1017.6 mb - 0.00 in0.0 mm 0.00 in0.0 mm
02:50 AM 54.5°F12.5°C 53.4°F11.9°C 96% Calm Calm -- 30.05 in1017.6 mb - 0.00 in0.0 mm 0.00 in0.0 mm
02:40 AM 54.7°F12.6°C 53.6°F12.0°C 96% Calm Calm -- 30.05 in1017.6 mb - 0.00 in0.0 mm 0.00 in0.0 mm
02:30 AM 55.0°F12.8°C 53.9°F12.2°C 96% Calm Calm -- 30.05 in1017.6 mb - 0.00 in0.0 mm 0.00 in0.0 mm
02:20 AM 55.0°F12.8°C 53.9°F12.2°C 96% Calm Calm -- 30.05 in1017.6 mb - 0.00 in0.0 mm 0.00 in0.0 mm
02:10 AM 55.0°F12.8°C 53.9°F12.2°C 96% Calm Calm -- 30.05 in1017.6 mb - 0.00 in0.0 mm 0.00 in0.0 mm
02:00 AM 55.2°F12.9°C 54.1°F12.3°C 96% Calm Calm -- 30.05 in1017.6 mb - 0.00 in0.0 mm 0.00 in0.0 mm
01:50 AM 55.0°F12.8°C 53.9°F12.2°C 96% Calm Calm -- 30.05 in1017.6 mb - 0.00 in0.0 mm 0.00 in0.0 mm
01:40 AM 55.0°F12.8°C 53.9°F12.2°C 96% Calm Calm -- 30.05 in1017.6 mb - 0.00 in0.0 mm 0.00 in0.0 mm
01:30 AM 55.0°F12.8°C 53.9°F12.2°C 96% Calm Calm -- 30.04 in1017.3 mb - 0.00 in0.0 mm 0.00 in0.0 mm
01:20 AM 55.4°F13.0°C 54.3°F12.4°C 96% Calm Calm -- 30.04 in1017.3 mb - 0.00 in0.0 mm 0.00 in0.0 mm
01:10 AM 55.8°F13.2°C 54.6°F12.6°C 96% Calm Calm -- 30.05 in1017.6 mb - 0.00 in0.0 mm 0.00 in0.0 mm
01:00 AM 55.8°F13.2°C 54.6°F12.6°C 96% Calm Calm -- 30.05 in1017.6 mb - 0.00 in0.0 mm 0.00 in0.0 mm
12:50 AM 55.8°F13.2°C 54.3°F12.4°C 95% Calm Calm -- 30.05 in1017.6 mb - 0.00 in0.0 mm 0.00 in0.0 mm
12:40 AM 56.1°F13.4°C 54.7°F12.6°C 95% Calm Calm -- 30.05 in1017.6 mb - 0.00 in0.0 mm 0.00 in0.0 mm
12:30 AM 56.3°F13.5°C 54.9°F12.7°C 95% Calm Calm -- 30.05 in1017.6 mb - 0.00 in0.0 mm 0.00 in0.0 mm
12:20 AM 56.3°F13.5°C 54.9°F12.7°C 95% Calm Calm -- 30.05 in1017.6 mb - 0.00 in0.0 mm 0.00 in0.0 mm
12:10 AM 56.3°F13.5°C 54.9°F12.7°C 95% Calm Calm -- 30.05 in1017.6 mb - 0.00 in0.0 mm 0.00 in0.0 mm
12:00 AM 56.5°F13.6°C 55.1°F12.8°C 95% Calm Calm -- 30.05 in1017.6 mb - 0.00 in0.0 mm 0.00 in0.0 mm